Latest Weather Observations for Birdsville

IDQ60801

Issued at 6:35 am EST Monday 24 November 2014 (issued every 30 minutes, with the page automatically refreshed every 10 minutes)

About weather observations | Map of weather stations | Latest weather observations for QLD | Other Formats
Station Details ID: 038026 Name: BIRDSVILLE AIRPORT Lat: -25.90 Lon: 139.35 Height: 46.6 m
Data from the previous 72 hours. | See also: Recent months at Birdsville
Date/Time
EST
Temp
°C
App
Temp
°C
Dew
Point
Rel
Hum
%
Delta-T
°C
Wind Press
QNH
hPa
Press
MSL
hPa
Rain
since 9 am
mm
Dir
 
Spd
km/h
Gust
km/h
Spd
kts
Gust
kts
24/06:30am 29.0 30.2 20.7 61 5.5 N 15 15 8 8 1007.1 - 4.4
24/06:00am 29.1 28.2 19.1 54 6.5 N 22 30 12 16 1007.0 1006.7 4.4
24/05:30am 33.5 29.3 13.5 29 12.1 NNW 28 35 15 19 1007.4 - 4.4
24/05:00am 29.1 27.1 19.1 54 6.5 WNW 28 39 15 21 1007.4 - 4.4
24/04:30am 26.2 22.7 19.6 67 4.3 W 37 46 20 25 1007.5 - 3.4
24/04:11am 28.6 25.2 18.1 53 6.7 WNW 33 46 18 25 1007.1 - 0.0
24/04:00am 34.0 29.8 11.2 25 13.4 W 24 41 13 22 1006.9 - 0.0
24/03:30am 32.9 32.3 10.3 25 13.0 NNE 4 7 2 4 1006.3 - 0.0
24/03:00am 33.2 31.1 9.9 24 13.4 N 11 15 6 8 1006.2 1005.9 0.0
24/02:30am 32.9 31.3 10.3 25 13.0 N 9 11 5 6 1006.2 - 0.0
24/02:00am 33.1 31.4 9.8 24 13.3 N 9 13 5 7 1006.5 - 0.0
24/01:30am 33.5 32.3 10.2 24 13.4 N 7 7 4 4 1006.6 - 0.0
24/01:00am 33.9 32.4 10.5 24 13.6 NNE 9 11 5 6 1006.9 - 0.0
24/12:30am 34.7 33.6 10.5 23 14.1 NNW 7 9 4 5 1007.3 - 0.0
24/12:00am 35.1 35.2 11.5 24 14.0 NNW 2 7 1 4 1007.8 1007.5 0.0
 
Date/Time
EST
Temp
°C
App
Temp
°C
Dew
Point
Rel
Hum
%
Delta-T
°C
Wind Press
QNH
hPa
Press
MSL
hPa
Rain
since 9 am
mm
Dir
 
Spd
km/h
Gust
km/h
Spd
kts
Gust
kts
23/11:30pm 35.4 34.6 11.7 23 14.1 NNW 7 9 4 5 1008.0 - 0.0
23/11:00pm 35.8 34.0 12.1 24 14.2 NNW 13 15 7 8 1008.3 - 0.0
23/10:30pm 36.7 34.5 12.2 23 14.8 N 15 19 8 10 1008.1 - 0.0
23/10:00pm 37.0 34.3 11.8 22 15.1 N 17 20 9 11 1008.1 - 0.0
23/09:30pm 37.3 33.3 10.6 20 15.8 NNW 22 30 12 16 1007.9 - 0.0
23/09:00pm 38.6 35.7 8.3 16 17.4 NNW 13 17 7 9 1007.5 1007.2 0.0
23/08:30pm 38.6 36.1 8.3 16 17.4 N 11 13 6 7 1007.2 - 0.0
23/08:00pm 39.1 35.6 8.7 16 17.6 NNE 17 20 9 11 1006.8 - 0.0
23/07:30pm 39.6 36.7 8.1 15 18.1 NNE 13 17 7 9 1006.5 - 0.0
23/07:00pm 40.1 36.0 8.5 15 18.3 NNE 20 24 11 13 1006.1 - 0.0
23/06:30pm 40.7 37.0 8.0 14 18.8 N 17 22 9 12 1005.9 - 0.0
23/06:00pm 41.0 37.0 8.2 14 19.0 N 19 26 10 14 1005.4 1005.2 0.0
23/05:30pm 41.7 36.9 8.8 14 19.3 N 24 33 13 18 1005.3 - 0.0
23/05:00pm 41.9 37.8 7.8 13 19.7 N 19 26 10 14 1005.5 - 0.0
23/04:30pm 41.1 39.4 8.3 14 19.0 N 7 13 4 7 1005.8 - 0.0
23/04:00pm 41.3 38.9 8.5 14 19.1 N 11 17 6 9 1006.1 - 0.0
23/03:30pm 41.7 38.7 7.7 13 19.6 N 13 28 7 15 1006.3 - 0.0
23/03:00pm 42.7 38.2 8.4 13 20.1 NNW 22 32 12 17 1006.6 1006.3 0.0
23/02:30pm 42.7 38.2 8.4 13 20.0 NW 22 32 12 17 1006.8 - 0.0
23/02:00pm 41.5 38.3 8.6 14 19.2 N 15 30 8 16 1007.4 - 0.0
23/01:30pm 40.9 36.3 8.1 14 18.9 N 22 28 12 15 1007.9 - 0.0
23/01:00pm 40.8 37.0 9.1 15 18.6 NNW 19 30 10 16 1008.4 - 0.0
23/12:30pm 40.6 36.8 9.9 16 18.2 NW 20 33 11 18 1008.8 - 0.0
23/12:00pm 40.3 36.2 11.4 18 17.5 NW 24 35 13 19 1009.1 1008.8 0.0
23/11:30am 39.9 34.8 11.9 19 17.0 NW 30 39 16 21 1009.7 - 0.0
23/11:00am 38.4 33.6 11.5 20 16.2 NNW 28 37 15 20 1010.2 - 0.0
23/10:30am 36.9 32.1 11.7 22 15.1 N 28 35 15 19 1010.8 - 0.0
23/10:00am 36.4 34.0 12.6 24 14.4 N 17 26 9 14 1011.4 - 0.0
23/09:30am 34.3 30.7 13.2 28 12.8 NNE 24 33 13 18 1011.8 - 0.0
23/09:00am 33.9 33.1 12.8 28 12.7 N 9 15 5 8 1011.3 1011.0 0.0
23/08:30am 33.2 32.5 13.3 30 12.0 SW 9 13 5 7 1011.0 - 0.0
23/08:00am 31.7 30.0 13.5 33 11.0 SW 15 17 8 9 1010.8 - 0.0
23/07:30am 31.1 28.9 13.4 34 10.6 SW 17 24 9 13 1010.4 - 0.0
23/07:00am 30.4 28.7 13.7 36 10.0 W 15 20 8 11 1009.9 - 0.0
23/06:30am 29.9 29.0 13.6 36 9.8 NW 11 17 6 9 1009.1 - 0.0
23/06:00am 29.9 29.2 13.2 36 10.0 NW 9 13 5 7 1008.8 1008.5 0.0
23/05:30am 30.6 29.2 13.4 35 10.3 N 13 17 7 9 1008.0 - 0.0
23/05:00am 31.0 27.6 13.7 34 10.4 NNW 24 30 13 16 1007.4 - 0.0
23/04:30am 31.1 28.4 13.4 34 10.6 NNW 20 24 11 13 1007.4 - 0.0
23/04:00am 31.4 28.4 13.6 33 10.7 N 22 26 12 14 1007.5 - 0.0
23/03:30am 31.8 28.1 14.0 34 10.8 N 26 32 14 17 1007.7 - 0.0
23/03:00am 32.0 27.1 13.7 33 11.1 N 32 43 17 23 1007.5 1007.2 0.0
23/02:49am 32.1 26.7 13.8 33 11.1 NE 35 46 19 25 1007.7 - 0.0
23/02:30am 32.6 26.8 13.8 32 11.4 N 37 50 20 27 1007.2 - 0.0
23/02:00am 33.7 26.2 12.7 28 12.6 N 44 56 24 30 1007.4 - 0.0
23/01:45am 34.4 27.6 12.1 26 13.3 N 39 59 21 32 1007.4 - 0.0
23/01:30am 34.5 29.1 12.2 26 13.3 N 32 39 17 21 1007.4 - 0.0
23/01:00am 34.6 29.2 12.3 26 13.3 N 32 41 17 22 1007.8 - 0.0
23/12:30am 34.4 28.2 12.7 27 13.1 NNE 37 44 20 24 1008.0 - 0.0
23/12:00am 34.5 28.5 12.2 26 13.3 NNE 35 46 19 25 1008.4 1008.1 0.0
 
Date/Time
EST
Temp
°C
App
Temp
°C
Dew
Point
Rel
Hum
%
Delta-T
°C
Wind Press
QNH
hPa
Press
MSL
hPa
Rain
since 9 am
mm
Dir
 
Spd
km/h
Gust
km/h
Spd
kts
Gust
kts
22/11:30pm 35.3 30.9 8.9 20 15.1 NNE 22 43 12 23 1008.3 - 0.0
22/11:00pm 34.4 31.7 7.5 19 14.9 NE 11 11 6 6 1008.0 - 0.0
22/10:30pm 34.8 32.2 7.8 19 15.1 NE 11 13 6 7 1008.0 - 0.0
22/10:00pm 35.5 33.0 8.3 19 15.4 E 11 11 6 6 1007.9 - 0.0
22/09:30pm 36.2 34.5 9.7 20 15.4 E 9 13 5 7 1007.7 - 0.0
22/09:00pm 36.6 34.0 7.6 17 16.3 E 11 13 6 7 1007.8 1007.5 0.0
22/08:30pm 36.4 33.3 7.4 17 16.2 E 13 17 7 9 1007.6 - 0.0
22/08:00pm 37.2 36.0 6.3 15 17.1 W 2 6 1 3 1007.3 - 0.0
22/07:30pm 38.2 35.0 7.0 15 17.5 W 13 19 7 10 1006.9 - 0.0
22/07:00pm 38.9 33.9 6.6 14 18.1 W 22 28 12 15 1006.6 - 0.0
22/06:30pm 39.6 34.4 7.1 14 18.4 W 24 32 13 17 1006.5 - 0.0
22/06:00pm 40.1 34.2 7.5 14 18.6 W 28 39 15 21 1006.2 1005.9 0.0
22/05:30pm 40.6 33.8 6.8 13 19.1 W 32 41 17 22 1005.9 - 0.0
22/05:00pm 41.1 33.5 6.0 12 19.7 W 35 48 19 26 1006.0 - 0.0
22/04:30pm 41.5 33.3 6.4 12 19.8 W 39 48 21 26 1006.0 - 0.0
22/04:06pm 42.9 33.7 6.2 11 20.8 W 44 57 24 31 1005.7 - 0.0
22/04:00pm 43.6 38.3 6.7 11 21.1 WNW 24 54 13 29 1005.6 - 0.0
22/03:30pm 42.8 38.3 6.1 11 20.8 W 19 26 10 14 1005.7 - 0.0
22/03:00pm 43.1 39.1 4.9 10 21.3 WNW 15 24 8 13 1005.8 1005.5 0.0
22/02:30pm 42.8 38.8 4.7 10 21.1 NNW 15 30 8 16 1006.0 - 0.0
22/02:00pm 43.2 38.3 5.0 10 21.3 N 20 35 11 19 1006.3 - 0.0
22/01:30pm 43.5 37.9 3.7 9 21.8 N 22 33 12 18 1006.6 - 0.0
22/01:00pm 45.1 39.0 4.9 9 22.6 N 26 37 14 20 1006.9 - 0.0
22/12:30pm 43.2 39.2 5.0 10 21.3 NNE 15 32 8 17 1007.2 - 0.0
22/12:00pm 43.0 37.7 4.9 10 21.3 NNE 22 37 12 20 1007.6 1007.3 0.0
22/11:30am 42.1 36.5 5.6 11 20.4 N 24 35 13 19 1008.1 - 0.0
22/11:00am 41.0 36.0 4.7 11 20.0 NE 20 30 11 16 1008.7 - 0.0
22/10:30am 40.0 36.4 5.2 12 19.2 N 13 20 7 11 1008.9 - 0.0
22/10:00am 38.9 34.7 5.5 13 18.4 N 17 24 9 13 1009.1 - 0.0
22/09:30am 38.1 34.9 4.9 13 18.1 N 11 17 6 9 1009.2 - 0.0
22/09:00am 37.4 35.0 5.4 14 17.5 NW 7 13 4 7 1009.2 1008.9 0.0
22/08:30am 36.2 34.6 6.4 16 16.4 NNW 4 9 2 5 1009.3 - 0.0
22/08:00am 35.2 33.8 7.3 18 15.5 NNW 4 7 2 4 1009.8 - 0.0
22/07:30am 33.0 31.4 7.8 21 14.0 E 6 9 3 5 1009.4 - 0.0
22/07:00am 31.3 28.7 7.7 23 13.0 NW 11 13 6 7 1009.0 - 0.0
22/06:30am 30.9 26.7 7.4 23 12.8 WNW 19 20 10 11 1009.1 - 0.0
22/06:00am 31.8 26.9 6.8 21 13.6 N 22 44 12 24 1008.3 1008.0 0.0
22/05:39am 30.2 23.2 8.6 26 12.0 NNW 35 57 19 31 1008.3 - 0.0
22/05:36am 28.9 23.1 8.0 27 11.4 NNW 28 44 15 24 1007.8 - 0.0
22/05:30am 28.0 25.8 6.2 25 11.5 ENE 7 9 4 5 1006.5 - 0.0
22/05:00am 28.2 26.2 6.9 26 11.3 ENE 7 9 4 5 1006.0 - 0.0
22/04:30am 29.5 27.1 8.5 27 11.6 ENE 11 13 6 7 1006.0 - 0.0
22/04:00am 28.3 25.8 6.4 25 11.6 ENE 9 11 5 6 1005.7 - 0.0
22/03:30am 28.5 26.0 6.6 25 11.6 ENE 9 11 5 6 1005.6 - 0.0
22/03:00am 29.7 27.4 7.6 25 12.0 E 9 11 5 6 1005.7 1005.4 0.0
22/02:30am 29.5 27.1 6.8 24 12.2 ENE 9 11 5 6 1005.7 - 0.0
22/02:00am 31.3 28.7 7.7 23 13.0 E 11 13 6 7 1006.2 - 0.0
22/01:30am 31.7 28.6 7.4 22 13.3 E 13 17 7 9 1006.4 - 0.0
22/01:00am 31.8 28.8 7.5 22 13.3 E 13 17 7 9 1006.7 - 0.0
22/12:30am 31.8 28.4 6.1 20 13.8 ESE 13 17 7 9 1007.2 - 0.0
22/12:00am 31.9 28.0 5.4 19 14.1 ESE 15 17 8 9 1007.7 1007.3 0.0
 
Date/Time
EST
Temp
°C
App
Temp
°C
Dew
Point
Rel
Hum
%
Delta-T
°C
Wind Press
QNH
hPa
Press
MSL
hPa
Rain
since 9 am
mm
Dir
 
Spd
km/h
Gust
km/h
Spd
kts
Gust
kts
21/11:30pm 31.2 28.0 4.9 19 13.8 ESE 11 13 6 7 1008.1 - 0.0
21/11:00pm 31.3 28.2 5.7 20 13.6 ESE 11 11 6 6 1008.3 - 0.0
21/10:30pm 32.4 29.4 5.8 19 14.2 SE 11 11 6 6 1008.4 - 0.0
21/10:00pm 32.9 30.2 5.5 18 14.6 SE 9 11 5 6 1008.4 - 0.0
21/09:30pm 33.8 31.2 6.2 18 15.0 SE 9 11 5 6 1008.2 - 0.0
21/09:00pm 33.8 31.2 6.2 18 15.0 SE 9 11 5 6 1008.0 1007.8 0.0
21/08:30pm 35.0 32.4 6.3 17 15.7 SE 9 9 5 5 1007.6 - 0.0
21/08:00pm 36.2 34.0 6.4 16 16.4 ESE 7 9 4 5 1007.3 - 0.0
21/07:30pm 36.9 34.6 5.0 14 17.3 ESE 6 7 3 4 1007.0 - 0.0
21/07:00pm 38.5 36.3 6.3 14 17.9 SE 7 9 4 5 1006.7 - 0.0
21/06:30pm 39.1 37.0 6.7 14 18.2 SE 7 11 4 6 1006.6 - 0.0
21/06:00pm 39.3 36.9 6.9 14 18.3 SSE 9 11 5 6 1006.5 1006.2 0.0
21/05:30pm 39.4 36.6 7.0 14 18.3 SE 11 15 6 8 1006.4 - 0.0
21/05:00pm 39.4 36.9 8.0 15 18.0 SSE 11 15 6 8 1006.6 - 0.0
21/04:30pm 38.6 36.3 7.4 15 17.7 WSW 9 13 5 7 1006.8 - 0.0
21/04:00pm 38.7 36.8 7.4 15 17.7 WSW 7 13 4 7 1007.2 - 0.0
21/03:30pm 39.1 35.5 10.4 18 17.0 SW 20 24 11 13 1007.6 - 0.0
21/03:00pm 37.9 34.0 9.5 18 16.6 SSW 20 26 11 14 1008.2 1007.9 0.0
21/02:30pm 36.4 33.0 10.6 21 15.2 SSW 19 24 10 13 1008.9 - 0.0
21/02:00pm 37.3 33.3 8.2 17 16.6 SW 19 24 10 13 1009.7 - 0.0
21/01:30pm 37.2 34.8 7.2 16 16.8 E 9 13 5 7 1009.1 - 0.0
21/01:00pm 36.8 33.6 6.9 16 16.7 S 13 20 7 11 1009.8 - 0.0
21/12:30pm 37.4 33.1 5.4 14 17.5 SE 17 24 9 13 1010.5 - 0.0
21/12:00pm 36.9 32.2 5.0 14 17.3 ESE 19 24 10 13 1010.5 1010.2 0.0
21/11:30am 37.0 31.3 5.1 14 17.3 SE 24 33 13 18 1010.8 - 0.0
21/11:00am 37.2 32.0 5.3 14 17.4 SE 22 30 12 16 1011.1 - 0.0
21/10:30am 35.8 31.3 7.0 17 16.0 SE 20 28 11 15 1011.3 - 0.0
21/10:00am 33.8 29.8 8.4 21 14.3 SE 19 24 10 13 1011.6 - 0.0
21/09:30am 32.8 27.9 8.3 22 13.7 SE 24 28 13 15 1011.6 - 0.0
21/09:00am 32.5 28.0 8.7 23 13.4 SSE 22 28 12 15 1011.6 1011.3 0.0
21/08:30am 32.3 27.8 8.5 23 13.3 SE 22 28 12 15 1011.3 - 0.0
21/08:00am 31.5 27.6 8.5 24 12.8 ESE 19 24 10 13 1010.9 - 0.0
21/07:30am 30.1 27.2 6.7 23 12.6 ESE 11 17 6 9 1010.5 - 0.0
21/07:00am 27.2 24.6 6.0 26 11.1 SE 9 11 5 6 1010.0 - 0.0

Other Formats:

Comma delimited format used in spreadsheet applications
http://www.bom.gov.au/fwo/IDQ60801/IDQ60801.95482.axf

JavaScript Object Notation format (JSON) in row-major order
http://www.bom.gov.au/fwo/IDQ60801/IDQ60801.95482.json